Time;durP1;ratioP1;P1;durP2;ratioP2;P2;SDS_P1;SDS_P2;PMS_P1;PMS_P2;Temp;Humidity;BMP_temperature;BMP_pressure;BME280_temperature;BME280_humidity;BME280_pressure;Samples;Min_cycle;Max_cycle;Signal;HPM_P1;HPM_P2
2022/11/19 00:00:46;;;;;;;5.87;4.67;;;0.30;99.90;;;;;;4935658;28;20355;-79
2022/11/19 00:03:13;;;;;;;7.77;4.87;;;0.30;99.90;;;;;;4965639;28;20393;-80
2022/11/19 00:05:40;;;;;;;6.70;4.50;;;0.20;99.90;;;;;;4951216;28;20075;-78
2022/11/19 00:08:07;;;;;;;6.93;4.43;;;0.20;99.90;;;;;;4954409;28;20050;-78
2022/11/19 00:10:37;;;;;;;7.87;4.63;;;0.10;99.90;;;;;;4969696;28;20047;-79
2022/11/19 00:13:04;;;;;;;5.77;4.40;;;0.10;99.90;;;;;;4965943;28;20436;-77
2022/11/19 00:15:30;;;;;;;7.47;4.77;;;0.10;99.90;;;;;;4965846;28;20049;-78
2022/11/19 00:17:57;;;;;;;6.07;4.47;;;0.10;99.90;;;;;;4948424;28;20050;-79
2022/11/19 00:20:23;;;;;;;7.30;4.90;;;0.00;99.90;;;;;;4966403;28;20047;-77
2022/11/19 00:22:53;;;;;;;6.07;4.60;;;0.00;99.90;;;;;;4968901;28;20046;-79
2022/11/19 00:25:24;;;;;;;6.38;3.72;;;-0.10;99.90;;;;;;4966712;28;20041;-78
2022/11/19 00:27:51;;;;;;;6.47;4.47;;;-0.10;99.90;;;;;;4934596;28;20071;-77
2022/11/19 00:30:16;;;;;;;7.87;5.13;;;-0.20;99.90;;;;;;4967965;28;20053;-77
2022/11/19 00:32:42;;;;;;;7.27;4.97;;;-0.20;99.90;;;;;;4966861;28;20129;-79
2022/11/19 00:35:08;;;;;;;7.13;4.90;;;-0.30;99.90;;;;;;4970312;28;20042;-79
2022/11/19 00:37:34;;;;;;;7.30;5.33;;;-0.30;99.90;;;;;;4951204;28;20047;-78
2022/11/19 00:40:00;;;;;;;6.97;5.00;;;-0.30;99.90;;;;;;4966573;28;20058;-79
2022/11/19 00:42:26;;;;;;;6.47;4.43;;;-0.30;99.90;;;;;;4951035;28;20397;-79
2022/11/19 00:44:52;;;;;;;7.40;5.53;;;-0.30;99.90;;;;;;4957942;28;20047;-78
2022/11/19 00:47:17;;;;;;;7.77;5.10;;;-0.40;99.90;;;;;;4947026;28;20079;-78
2022/11/19 00:49:43;;;;;;;7.00;4.90;;;-0.40;99.90;;;;;;4962524;28;20078;-79
2022/11/19 00:52:09;;;;;;;7.23;5.57;;;-0.50;99.90;;;;;;4968682;28;20043;-78
2022/11/19 00:54:34;;;;;;;7.67;5.47;;;-0.50;99.90;;;;;;4969337;28;20046;-78
2022/11/19 00:57:00;;;;;;;6.77;5.23;;;-0.50;99.90;;;;;;4954697;28;20507;-78
2022/11/19 00:59:26;;;;;;;7.97;5.47;;;-0.50;99.90;;;;;;4948943;28;20414;-79
2022/11/19 01:01:52;;;;;;;6.40;5.23;;;-0.60;99.90;;;;;;4965955;28;20054;-78
2022/11/19 01:04:17;;;;;;;9.97;5.77;;;-0.20;99.90;;;;;;4951492;28;20534;-79
2022/11/19 01:06:43;;;;;;;7.50;5.80;;;-0.70;99.90;;;;;;4950745;28;20559;-78
2022/11/19 01:09:09;;;;;;;8.83;6.03;;;-0.70;99.90;;;;;;4963580;28;20117;-78
2022/11/19 01:11:36;;;;;;;7.33;5.53;;;-0.70;99.90;;;;;;4951569;28;20043;-78
2022/11/19 01:14:04;;;;;;;9.50;5.80;;;-0.70;99.90;;;;;;4952477;28;20054;-82
2022/11/19 01:16:35;;;;;;;8.13;5.90;;;-0.80;99.90;;;;;;4959005;28;20041;-78
2022/11/19 01:19:02;;;;;;;7.82;5.82;;;-0.70;99.90;;;;;;4965389;28;20107;-79
2022/11/19 01:21:30;;;;;;;7.87;5.70;;;-0.70;99.90;;;;;;4967901;28;20113;-79
2022/11/19 01:23:57;;;;;;;8.07;5.97;;;-0.70;99.90;;;;;;4954571;28;20038;-79
2022/11/19 01:26:23;;;;;;;10.00;5.80;;;-0.70;99.90;;;;;;4943514;28;20038;-78
2022/11/19 01:28:49;;;;;;;8.43;6.03;;;-0.70;99.90;;;;;;4969348;28;20122;-78
2022/11/19 01:31:21;;;;;;;9.20;5.60;;;-0.70;99.90;;;;;;4969394;28;20473;-79
2022/11/19 01:33:47;;;;;;;7.77;5.80;;;-0.70;99.90;;;;;;4945469;28;20082;-80
2022/11/19 01:36:16;;;;;;;8.37;6.30;;;-0.70;99.90;;;;;;4960969;28;20047;-81
2022/11/19 01:38:42;;;;;;;8.93;5.97;;;-0.70;99.90;;;;;;4962132;28;20481;-79
2022/11/19 01:41:07;;;;;;;9.23;6.00;;;-0.70;99.90;;;;;;4966376;28;20069;-79
2022/11/19 01:44:00;;;;;;;10.03;6.47;;;-0.70;99.90;;;;;;4962916;28;20059;-79
2022/11/19 01:46:29;;;;;;;8.73;5.80;;;-0.70;99.90;;;;;;4933777;29;20401;-79
2022/11/19 01:49:03;;;;;;;9.17;6.07;;;-0.80;99.90;;;;;;4945758;28;20608;-80
2022/11/19 01:51:29;;;;;;;9.40;5.87;;;-0.70;99.90;;;;;;4945925;29;20134;-79
2022/11/19 01:53:57;;;;;;;9.50;6.90;;;-0.70;99.90;;;;;;4945363;29;20047;-80
2022/11/19 01:56:24;;;;;;;9.23;6.20;;;-0.80;99.90;;;;;;4935537;29;20043;-78
2022/11/19 01:59:02;;;;;;;8.93;6.30;;;-0.70;99.90;;;;;;4942818;28;20051;-80
2022/11/19 02:01:29;;;;;;;9.10;6.13;;;-0.80;99.90;;;;;;4941403;29;20127;-80
2022/11/19 02:03:59;;;;;;;10.90;6.87;;;-0.80;99.90;;;;;;4948591;28;20546;-79
2022/11/19 02:06:27;;;;;;;8.03;6.33;;;-0.90;99.90;;;;;;4938485;29;20047;-79
2022/11/19 02:08:53;;;;;;;8.20;6.40;;;-0.90;99.90;;;;;;4945846;28;20142;-79
2022/11/19 02:11:24;;;;;;;8.77;6.50;;;-0.90;99.90;;;;;;4950933;29;20537;-78
2022/11/19 02:14:46;;;;;;;9.23;6.53;;;-0.90;99.90;;;;;;4950371;28;20051;-80
2022/11/19 02:17:43;;;;;;;10.82;7.15;;;-1.00;99.90;;;;;;4896016;29;20557;-79
2022/11/19 02:20:36;;;;;;;10.57;6.63;;;-1.00;99.90;;;;;;4907155;29;20153;-81
2022/11/19 02:23:39;;;;;;;10.90;6.97;;;-1.10;99.90;;;;;;4943648;28;20138;-79
2022/11/19 02:26:24;;;;;;;11.33;7.03;;;-1.10;99.90;;;;;;4944051;28;20059;-83
2022/11/19 02:29:05;;;;;;;10.07;7.40;;;-1.10;99.90;;;;;;4942997;28;20048;-80
2022/11/19 02:31:38;;;;;;;11.10;7.00;;;-1.10;99.90;;;;;;4947060;29;20489;-79
2022/11/19 02:34:07;;;;;;;10.70;7.30;;;-1.20;99.90;;;;;;4947834;28;20489;-82
2022/11/19 02:36:47;;;;;;;11.43;7.23;;;-1.20;99.90;;;;;;4938522;29;20047;-80
2022/11/19 02:39:18;;;;;;;11.27;7.13;;;-1.30;99.90;;;;;;4946100;29;20134;-80
2022/11/19 02:42:11;;;;;;;11.60;6.90;;;-1.30;99.90;;;;;;4947746;29;20394;-80
2022/11/19 02:44:58;;;;;;;10.03;7.10;;;-1.30;99.90;;;;;;4950814;28;20126;-83
2022/11/19 02:47:40;;;;;;;9.20;7.37;;;-1.40;99.90;;;;;;4938798;28;20043;-79
2022/11/19 02:50:08;;;;;;;12.37;7.57;;;-1.40;99.90;;;;;;4964510;28;20059;-79
2022/11/19 02:52:36;;;;;;;11.80;7.17;;;-1.00;99.90;;;;;;4953876;28;20074;-79
2022/11/19 02:55:01;;;;;;;11.77;7.73;;;-1.50;99.90;;;;;;4968989;28;20049;-79
2022/11/19 02:57:27;;;;;;;13.43;7.23;;;-1.50;99.90;;;;;;4954046;28;20469;-78
2022/11/19 03:05:47;;;;;;;11.10;7.60;;;-1.60;99.90;;;;;;4954494;28;20049;-80
2022/11/19 03:08:13;;;;;;;11.73;7.53;;;-1.60;99.90;;;;;;4948547;28;20377;-79
2022/11/19 03:10:53;;;;;;;11.23;7.67;;;-1.60;99.90;;;;;;4970195;28;20047;-79
2022/11/19 03:16:40;;;;;;;10.37;7.30;;;-1.60;99.90;;;;;;4954838;28;20417;-79
2022/11/19 03:19:31;;;;;;;10.70;7.07;;;-1.60;99.90;;;;;;4966245;28;20105;-79
2022/11/19 03:22:14;;;;;;;9.88;7.18;;;-1.60;99.90;;;;;;4942308;28;20088;-79
2022/11/19 03:24:44;;;;;;;10.87;7.17;;;-1.60;99.90;;;;;;4965157;28;20122;-79
2022/11/19 03:27:24;;;;;;;10.57;6.87;;;-1.70;99.90;;;;;;4954182;28;20046;-79
2022/11/19 03:29:59;;;;;;;11.80;7.17;;;-1.70;99.90;;;;;;4951793;28;20046;-81
2022/11/19 03:32:36;;;;;;;9.87;7.00;;;-1.70;99.90;;;;;;4950629;28;20039;-78
2022/11/19 03:35:10;;;;;;;9.97;7.03;;;-1.70;99.90;;;;;;4939999;28;20055;-80
2022/11/19 03:37:41;;;;;;;10.13;7.23;;;-1.80;99.90;;;;;;4937115;28;20047;-79
2022/11/19 03:40:09;;;;;;;9.45;5.68;;;-1.80;99.90;;;;;;4965057;28;20145;-79
2022/11/19 03:42:35;;;;;;;11.27;6.97;;;-1.90;99.90;;;;;;4949816;28;20035;-79
2022/11/19 03:45:10;;;;;;;10.70;7.23;;;-1.90;99.90;;;;;;4970176;28;20051;-79
2022/11/19 03:47:39;;;;;;;13.40;8.07;;;-1.90;99.90;;;;;;4951738;28;20046;-79
2022/11/19 03:50:19;;;;;;;11.63;7.60;;;-1.90;99.90;;;;;;4967911;28;20492;-79
2022/11/19 03:52:45;;;;;;;10.50;7.40;;;-1.90;99.90;;;;;;4961038;28;20038;-79
2022/11/19 03:55:11;;;;;;;12.67;7.80;;;-2.00;99.90;;;;;;4970319;28;20043;-79
2022/11/19 03:57:37;;;;;;;10.93;7.70;;;-2.10;99.90;;;;;;4954400;28;20096;-79
2022/11/19 04:00:04;;;;;;;9.77;7.27;;;-2.10;99.90;;;;;;4968790;28;20465;-79
2022/11/19 04:02:30;;;;;;;11.57;8.07;;;-2.10;99.90;;;;;;4965440;28;20043;-79
2022/11/19 04:04:56;;;;;;;11.73;7.63;;;-2.10;99.90;;;;;;4970604;28;20135;-80
2022/11/19 04:07:22;;;;;;;10.70;7.33;;;-2.20;99.90;;;;;;4952360;28;20104;-78
2022/11/19 04:09:48;;;;;;;11.93;7.97;;;-2.10;99.90;;;;;;4965291;28;20412;-79
2022/11/19 04:12:23;;;;;;;12.93;7.97;;;-2.10;99.90;;;;;;4966579;28;20055;-81
2022/11/19 04:14:49;;;;;;;10.37;7.27;;;-2.20;99.90;;;;;;4949814;28;20059;-81
2022/11/19 04:17:16;;;;;;;11.70;8.00;;;-2.20;99.90;;;;;;4948927;28;20501;-81
2022/11/19 04:19:42;;;;;;;11.53;7.80;;;-2.10;99.90;;;;;;4950115;28;20492;-78
2022/11/19 04:22:08;;;;;;;11.37;8.33;;;-1.50;99.90;;;;;;4949812;28;20042;-79
2022/11/19 04:24:34;;;;;;;10.23;7.23;;;-2.20;99.90;;;;;;4966138;28;20130;-79
2022/11/19 04:26:59;;;;;;;11.90;7.70;;;-2.20;99.90;;;;;;4951893;28;20447;-79
2022/11/19 04:29:25;;;;;;;11.93;8.00;;;-2.20;99.90;;;;;;4948761;28;20391;-78
2022/11/19 04:31:51;;;;;;;11.20;7.70;;;-2.20;99.90;;;;;;4970073;28;20039;-79
2022/11/19 04:34:16;;;;;;;10.73;7.10;;;-2.20;99.90;;;;;;4951758;28;20046;-78
2022/11/19 04:36:42;;;;;;;11.83;7.23;;;-2.20;99.90;;;;;;4950320;28;20093;-82
2022/11/19 04:39:11;;;;;;;11.83;8.03;;;-2.10;99.90;;;;;;4964615;28;20157;-78
2022/11/19 04:41:37;;;;;;;11.23;7.80;;;-2.20;99.90;;;;;;4964277;28;20428;-78
2022/11/19 04:44:03;;;;;;;12.03;8.00;;;-2.10;99.90;;;;;;4968366;28;20046;-78
2022/11/19 04:46:29;;;;;;;10.37;7.87;;;-2.20;99.90;;;;;;4957052;28;20070;-82
2022/11/19 04:48:55;;;;;;;10.83;7.70;;;-2.20;99.90;;;;;;4968380;28;20065;-79
2022/11/19 04:51:21;;;;;;;10.77;7.10;;;-2.20;99.90;;;;;;4973109;28;20074;-79
2022/11/19 04:53:46;;;;;;;9.93;7.07;;;-2.20;99.90;;;;;;4973058;28;20051;-81
2022/11/19 04:56:12;;;;;;;11.53;7.10;;;-2.20;99.90;;;;;;4962871;28;20037;-78
2022/11/19 04:58:38;;;;;;;11.77;7.47;;;-2.20;99.90;;;;;;4946544;28;20086;-78
2022/11/19 05:01:04;;;;;;;10.57;7.33;;;-2.20;99.90;;;;;;4968065;28;20046;-79
2022/11/19 05:03:29;;;;;;;10.47;7.43;;;-2.30;99.90;;;;;;4971468;28;20053;-79
2022/11/19 05:05:55;;;;;;;11.67;6.67;;;-2.30;99.90;;;;;;4972010;28;20477;-80
2022/11/19 05:08:21;;;;;;;10.47;6.97;;;-2.30;99.90;;;;;;4951573;28;20043;-79
2022/11/19 05:10:46;;;;;;;12.70;7.20;;;-2.30;99.90;;;;;;4975239;28;20046;-78
2022/11/19 05:13:12;;;;;;;10.40;6.93;;;-2.30;99.90;;;;;;4966774;28;20580;-78
2022/11/19 05:15:38;;;;;;;11.37;7.53;;;-2.20;99.90;;;;;;4952607;28;20058;-79
2022/11/19 05:18:04;;;;;;;10.33;7.13;;;-2.20;99.90;;;;;;4955669;28;20047;-78
2022/11/19 05:20:29;;;;;;;9.90;7.13;;;-2.20;99.90;;;;;;4937629;28;20050;-79
2022/11/19 05:22:55;;;;;;;12.10;7.07;;;-2.30;99.90;;;;;;4971015;28;20132;-79
2022/11/19 05:25:21;;;;;;;9.93;6.80;;;-2.30;99.90;;;;;;4966108;28;20031;-79
2022/11/19 05:27:46;;;;;;;11.83;7.67;;;-2.30;99.90;;;;;;4942675;28;20050;-79
2022/11/19 05:30:12;;;;;;;11.93;7.37;;;-2.30;99.90;;;;;;4958026;28;20065;-78
2022/11/19 05:32:38;;;;;;;9.77;7.17;;;-2.30;99.90;;;;;;4968600;28;20054;-80
2022/11/19 05:35:05;;;;;;;10.03;7.23;;;-2.30;99.90;;;;;;4975970;28;20058;-78
2022/11/19 05:37:31;;;;;;;12.83;7.67;;;-2.30;99.90;;;;;;4959124;28;20133;-78
2022/11/19 05:39:57;;;;;;;9.60;7.10;;;-2.30;99.90;;;;;;4974478;28;20129;-79
2022/11/19 05:42:22;;;;;;;12.37;7.23;;;-2.30;99.90;;;;;;4958128;28;20122;-79
2022/11/19 05:44:48;;;;;;;11.90;7.37;;;-2.30;99.90;;;;;;4975932;28;20046;-78
2022/11/19 05:47:15;;;;;;;11.00;7.33;;;-2.30;99.90;;;;;;4955263;28;20117;-78
2022/11/19 05:49:40;;;;;;;12.30;7.00;;;-2.40;99.90;;;;;;4957008;28;20059;-80
2022/11/19 05:52:06;;;;;;;12.03;7.13;;;-2.40;99.90;;;;;;4971250;28;20054;-78
2022/11/19 05:54:32;;;;;;;10.47;6.90;;;-2.40;99.90;;;;;;4972333;28;20047;-79
2022/11/19 05:56:58;;;;;;;11.10;6.50;;;-2.40;99.90;;;;;;4959729;28;20076;-79
2022/11/19 05:59:23;;;;;;;10.77;7.10;;;-2.40;99.90;;;;;;4971241;28;20102;-79
2022/11/19 06:01:49;;;;;;;11.50;8.13;;;-2.40;99.90;;;;;;4972283;28;20046;-78
2022/11/19 06:04:15;;;;;;;10.63;7.37;;;-2.40;99.90;;;;;;4969684;28;20125;-78
2022/11/19 06:06:40;;;;;;;9.87;7.37;;;-2.40;99.90;;;;;;4958865;28;20058;-78
2022/11/19 06:09:07;;;;;;;12.60;7.63;;;-2.40;99.90;;;;;;4969575;28;20185;-79
2022/11/19 06:11:48;;;;;;;11.80;7.37;;;-2.40;99.90;;;;;;4970984;28;20467;-81
2022/11/19 06:14:16;;;;;;;11.33;7.60;;;-2.50;99.90;;;;;;4967717;28;20047;-79
2022/11/19 06:16:42;;;;;;;11.70;7.60;;;-2.50;99.90;;;;;;4955210;28;20043;-83
2022/11/19 06:19:08;;;;;;;12.67;7.23;;;-2.40;99.90;;;;;;4967388;28;20042;-79
2022/11/19 06:21:33;;;;;;;11.23;7.20;;;-2.50;99.90;;;;;;4971278;28;20097;-79
2022/11/19 06:23:59;;;;;;;10.83;7.27;;;-2.40;99.90;;;;;;4964070;28;20046;-78
2022/11/19 06:26:27;;;;;;;11.23;7.40;;;-2.50;99.90;;;;;;4954266;28;20039;-78
2022/11/19 06:28:53;;;;;;;12.10;7.87;;;-2.50;99.90;;;;;;4964873;28;20082;-78
2022/11/19 06:31:20;;;;;;;11.53;7.40;;;-2.50;99.90;;;;;;4954856;28;20043;-79
2022/11/19 06:33:46;;;;;;;11.57;7.43;;;-2.50;99.90;;;;;;4950257;28;20065;-79
2022/11/19 06:36:12;;;;;;;9.90;7.30;;;-2.50;99.90;;;;;;4962797;28;20042;-83
2022/11/19 06:38:38;;;;;;;10.87;7.27;;;-2.50;99.90;;;;;;4962419;28;20448;-78
2022/11/19 06:41:04;;;;;;;12.63;7.43;;;-2.50;99.90;;;;;;4968722;28;20154;-78
2022/11/19 06:43:30;;;;;;;10.60;7.53;;;-2.50;99.90;;;;;;4963755;28;20055;-78
2022/11/19 06:45:55;;;;;;;11.20;7.37;;;-2.50;99.90;;;;;;4969606;28;20054;-78
2022/11/19 06:48:21;;;;;;;9.80;7.03;;;-2.60;99.90;;;;;;4938166;28;20050;-80
2022/11/19 06:50:47;;;;;;;10.90;7.53;;;-2.60;99.90;;;;;;4968034;28;20050;-78
2022/11/19 06:53:13;;;;;;;10.87;7.50;;;-2.60;99.90;;;;;;4953256;28;20047;-78
2022/11/19 06:55:39;;;;;;;11.33;7.93;;;-2.60;99.90;;;;;;4965795;28;20480;-78
2022/11/19 06:58:06;;;;;;;12.20;8.20;;;-2.70;99.90;;;;;;4941781;28;20445;-79
2022/11/19 07:00:32;;;;;;;11.57;7.83;;;-2.70;99.90;;;;;;4963959;28;20050;-79
2022/11/19 07:02:58;;;;;;;12.33;7.80;;;-2.70;99.90;;;;;;4967834;28;20105;-79
2022/11/19 07:05:24;;;;;;;11.77;7.93;;;-2.70;99.90;;;;;;4954281;28;20081;-80
2022/11/19 07:07:49;;;;;;;10.20;7.17;;;-2.70;99.90;;;;;;4952207;28;20043;-78
2022/11/19 07:10:15;;;;;;;10.30;7.87;;;-2.80;99.90;;;;;;4970388;28;20094;-79
2022/11/19 07:12:41;;;;;;;12.90;7.57;;;-2.80;99.90;;;;;;4970414;28;20131;-79
2022/11/19 07:15:07;;;;;;;11.87;7.50;;;-2.80;99.90;;;;;;4970442;28;20042;-78
2022/11/19 07:17:33;;;;;;;14.37;8.70;;;-2.80;99.90;;;;;;4954237;28;20038;-78
2022/11/19 07:19:58;;;;;;;11.23;7.80;;;-2.80;99.90;;;;;;4968855;28;20101;-78
2022/11/19 07:22:24;;;;;;;11.47;8.37;;;-2.80;99.90;;;;;;4953289;28;20038;-78
2022/11/19 07:24:50;;;;;;;11.93;8.40;;;-2.80;99.90;;;;;;4968649;28;20043;-79
2022/11/19 07:27:16;;;;;;;13.40;8.63;;;-2.80;99.90;;;;;;4921157;28;20122;-78
2022/11/19 07:29:41;;;;;;;13.47;8.70;;;-2.80;99.90;;;;;;4967094;28;20125;-79
2022/11/19 07:32:07;;;;;;;12.63;8.80;;;-2.80;99.90;;;;;;4968924;28;20161;-79
2022/11/19 07:34:33;;;;;;;13.27;9.00;;;-2.80;99.90;;;;;;4967702;28;20042;-79
2022/11/19 07:36:59;;;;;;;12.73;8.60;;;-2.70;99.90;;;;;;4945482;28;20559;-79
2022/11/19 07:39:24;;;;;;;14.33;9.63;;;-2.70;99.90;;;;;;4967155;28;20093;-78
2022/11/19 07:44:34;;;;;;;11.77;8.13;;;-2.60;99.90;;;;;;4965957;28;20070;-82
2022/11/19 07:47:00;;;;;;;12.63;7.97;;;-2.50;99.90;;;;;;4952257;28;20058;-78
2022/11/19 07:49:25;;;;;;;10.63;7.80;;;-2.40;99.90;;;;;;4963872;28;20486;-79
2022/11/19 07:51:52;;;;;;;11.03;7.80;;;-2.30;99.90;;;;;;4967077;28;20046;-79
2022/11/19 07:54:18;;;;;;;11.73;7.63;;;-2.30;99.90;;;;;;4967591;28;20051;-79
2022/11/19 07:56:43;;;;;;;12.33;7.60;;;-2.20;99.90;;;;;;4953120;28;20045;-78
2022/11/19 07:59:09;;;;;;;10.33;7.60;;;-2.20;99.90;;;;;;4966845;28;20046;-78
2022/11/19 08:01:35;;;;;;;12.67;8.00;;;-2.20;99.90;;;;;;4969113;28;20050;-78
2022/11/19 08:04:03;;;;;;;12.03;7.83;;;-2.10;99.90;;;;;;4968235;28;20106;-79
2022/11/19 08:06:29;;;;;;;12.23;7.77;;;-2.10;99.90;;;;;;4950813;28;20241;-79
2022/11/19 08:08:55;;;;;;;11.20;7.73;;;-1.90;99.90;;;;;;4949139;28;20053;-82
2022/11/19 08:11:21;;;;;;;10.43;7.33;;;-1.60;99.90;;;;;;4962410;28;20130;-79
2022/11/19 08:13:47;;;;;;;11.67;7.27;;;-1.40;99.90;;;;;;4962656;28;20055;-81
2022/11/19 08:18:11;;;;;;;11.30;7.43;;;-1.40;99.90;;;;;;4958382;28;20062;-80
2022/11/19 08:19:11;;;;;;;10.70;7.27;;;-1.50;99.90;;;;;;4965684;28;20071;-79
2022/11/19 08:21:41;;;;;;;11.60;7.73;;;-1.60;99.90;;;;;;4953253;28;20125;-78
2022/11/19 08:24:08;;;;;;;11.53;7.10;;;-1.60;99.90;;;;;;4962006;28;20492;-79
2022/11/19 08:26:34;;;;;;;11.83;7.77;;;-1.60;99.90;;;;;;4936127;28;20130;-79
2022/11/19 08:29:00;;;;;;;12.33;7.27;;;-1.50;99.90;;;;;;4963312;28;20146;-81
2022/11/19 08:31:25;;;;;;;14.70;8.47;;;-1.50;99.90;;;;;;4965699;28;20110;-79
2022/11/19 08:33:52;;;;;;;10.80;8.03;;;-1.50;99.90;;;;;;4951373;28;20105;-79
2022/11/19 08:36:18;;;;;;;12.17;8.17;;;-1.40;99.90;;;;;;4939913;28;20553;-79
2022/11/19 08:38:44;;;;;;;11.73;8.00;;;-1.40;99.90;;;;;;4944433;28;20053;-79
2022/11/19 08:43:54;;;;;;;10.73;7.73;;;-1.20;99.90;;;;;;4962674;28;20043;-80
2022/11/19 08:46:19;;;;;;;10.13;7.33;;;-1.10;99.90;;;;;;4941247;28;20376;-79
2022/11/19 08:48:46;;;;;;;13.33;8.43;;;-1.00;99.90;;;;;;4965009;28;20078;-79
2022/11/19 08:51:13;;;;;;;20.37;10.87;;;-1.00;99.90;;;;;;4965396;28;20094;-80
2022/11/19 08:53:39;;;;;;;13.03;8.57;;;-1.00;99.90;;;;;;4967027;28;20074;-80
2022/11/19 08:56:05;;;;;;;13.13;8.63;;;-1.00;99.90;;;;;;4955191;28;20137;-84
2022/11/19 08:58:31;;;;;;;12.07;8.47;;;-1.00;99.90;;;;;;4939842;28;20130;-78
2022/11/19 09:00:57;;;;;;;13.33;8.60;;;-1.00;99.90;;;;;;4951647;28;20122;-79
2022/11/19 09:03:23;;;;;;;13.27;7.87;;;-1.00;99.90;;;;;;4969089;28;20043;-80
2022/11/19 09:05:49;;;;;;;11.97;8.60;;;-1.00;99.90;;;;;;4968915;28;20137;-79
2022/11/19 09:08:14;;;;;;;11.97;8.27;;;-1.00;99.90;;;;;;4952300;28;20124;-79
2022/11/19 09:10:40;;;;;;;12.07;8.50;;;-0.40;99.90;;;;;;4968156;28;20089;-78
2022/11/19 09:13:06;;;;;;;11.30;8.00;;;-0.90;99.90;;;;;;4968580;28;20043;-79
2022/11/19 09:15:32;;;;;;;13.63;8.33;;;-0.90;99.90;;;;;;4969344;28;20043;-79
2022/11/19 09:17:58;;;;;;;12.83;7.70;;;-0.80;99.90;;;;;;4952666;28;20043;-80
2022/11/19 09:20:23;;;;;;;17.50;8.30;;;-0.80;99.90;;;;;;4963939;28;20047;-81
2022/11/19 09:22:49;;;;;;;10.93;7.90;;;-0.80;99.90;;;;;;4967347;28;20047;-79
2022/11/19 09:25:15;;;;;;;11.90;8.33;;;-0.80;99.90;;;;;;4961235;28;20122;-79
2022/11/19 09:27:41;;;;;;;15.27;9.90;;;-0.70;99.90;;;;;;4951703;28;20047;-79
2022/11/19 09:30:07;;;;;;;17.17;10.57;;;-0.60;99.90;;;;;;4964709;28;20046;-79
2022/11/19 09:32:33;;;;;;;16.30;9.63;;;-0.50;99.90;;;;;;4948124;28;20035;-80
2022/11/19 09:34:59;;;;;;;15.37;9.87;;;-0.50;99.90;;;;;;4951919;28;20050;-79
2022/11/19 09:37:25;;;;;;;13.70;8.73;;;-0.40;99.90;;;;;;4938606;28;20074;-79
2022/11/19 09:39:50;;;;;;;13.03;8.77;;;-0.30;99.90;;;;;;4968159;28;20042;-79
2022/11/19 09:42:25;;;;;;;11.77;8.17;;;-0.30;99.90;;;;;;4965831;28;20042;-80
2022/11/19 09:45:15;;;;;;;12.27;7.90;;;-0.20;99.90;;;;;;4968149;28;20185;-79
2022/11/19 09:47:49;;;;;;;13.27;8.50;;;-0.10;99.90;;;;;;4953340;28;20042;-79
2022/11/19 09:50:23;;;;;;;10.67;7.60;;;0.00;99.90;;;;;;4969118;28;20076;-80
2022/11/19 09:53:05;;;;;;;11.70;8.00;;;0.10;99.90;;;;;;4969326;28;20414;-80
2022/11/19 09:55:36;;;;;;;9.87;7.67;;;0.30;99.90;;;;;;4966281;28;20089;-80
2022/11/19 09:58:13;;;;;;;11.80;8.10;;;1.00;99.90;;;;;;4950484;28;20050;-80
2022/11/19 10:00:39;;;;;;;10.33;7.60;;;1.00;99.90;;;;;;4966194;28;20083;-79
2022/11/19 10:03:15;;;;;;;10.03;7.30;;;1.00;99.90;;;;;;4966505;28;20101;-80
2022/11/19 10:05:59;;;;;;;10.63;7.17;;;0.80;99.90;;;;;;4967015;28;20053;-80
2022/11/19 10:08:39;;;;;;;9.03;7.03;;;1.00;99.90;;;;;;4949813;28;20440;-80
2022/11/19 10:11:40;;;;;;;9.40;5.45;;;1.30;99.90;;;;;;4961079;28;20130;-80
2022/11/19 10:14:06;;;;;;;10.57;7.10;;;1.90;99.90;;;;;;4967349;28;20054;-80
2022/11/19 10:17:07;;;;;;;11.07;6.43;;;2.10;99.90;;;;;;4816247;28;20050;-80
2022/11/19 10:20:00;;;;;;;8.37;5.73;;;2.60;99.90;;;;;;4944211;28;20055;-79
2022/11/19 10:22:26;;;;;;;7.87;5.23;;;3.00;99.90;;;;;;4949494;28;20816;-80
2022/11/19 10:25:10;;;;;;;6.20;4.50;;;3.20;99.90;;;;;;4963546;28;20105;-80
2022/11/19 10:27:42;;;;;;;7.67;5.07;;;3.20;99.90;;;;;;4932327;28;20039;-80
2022/11/19 10:30:33;;;;;;;7.37;4.87;;;3.10;99.90;;;;;;4948825;28;20043;-81
2022/11/19 10:33:06;;;;;;;;;;;2.90;99.90;;;;;;4964090;28;20101;-79
2022/11/19 10:35:42;;;;;;;7.27;4.97;;;3.00;99.90;;;;;;4964536;28;19922;-83
2022/11/19 10:38:30;;;;;;;7.50;4.87;;;3.20;99.90;;;;;;4951893;28;20050;-81
2022/11/19 10:41:04;;;;;;;7.30;4.60;;;2.90;99.90;;;;;;4968630;28;20047;-82
2022/11/19 10:43:36;;;;;;;6.30;4.50;;;3.10;99.90;;;;;;4963907;28;20101;-80
2022/11/19 10:46:05;;;;;;;6.83;4.53;;;3.00;99.90;;;;;;4967855;28;20086;-80
2022/11/19 10:48:43;;;;;;;7.63;4.97;;;3.20;99.90;;;;;;4940990;28;20149;-80
2022/11/19 10:51:22;;;;;;;6.63;4.60;;;3.90;99.90;;;;;;4960285;28;20448;-79
2022/11/19 10:53:49;;;;;;;8.90;4.50;;;4.70;99.90;;;;;;4963890;28;20336;-81
2022/11/19 10:56:20;;;;;;;8.00;5.10;;;5.50;99.90;;;;;;4939876;28;20229;-79
2022/11/19 10:58:56;;;;;;;10.70;5.60;;;5.90;99.90;;;;;;4952256;28;20082;-81
2022/11/19 11:01:30;;;;;;;9.20;6.33;;;6.40;99.90;;;;;;4965015;28;20054;-80
2022/11/19 11:04:17;;;;;;;8.90;6.07;;;6.00;99.90;;;;;;4946139;28;20039;-80
2022/11/19 11:07:04;;;;;;;8.30;5.63;;;6.50;99.90;;;;;;4931034;28;20049;-83
2022/11/19 11:09:34;;;;;;;9.63;5.63;;;6.20;98.80;;;;;;4948613;28;20065;-82
2022/11/19 11:15:24;;;;;;;9.70;6.53;;;7.20;99.90;;;;;;4965753;28;20088;-80
2022/11/19 11:18:08;;;;;;;6.43;4.40;;;7.90;99.90;;;;;;4933053;28;20042;-80
2022/11/19 11:20:36;;;;;;;6.70;4.93;;;8.00;98.50;;;;;;4946079;28;20038;-80
2022/11/19 11:23:15;;;;;;;6.77;5.47;;;8.10;99.90;;;;;;4962538;28;20575;-80
2022/11/19 11:25:55;;;;;;;6.00;4.60;;;7.80;99.60;;;;;;4947069;28;20043;-81
2022/11/19 11:28:22;;;;;;;7.70;4.63;;;7.60;99.90;;;;;;4929602;28;20414;-81
2022/11/19 11:31:09;;;;;;;5.50;3.90;;;7.90;99.90;;;;;;4963421;28;20046;-80
2022/11/19 11:33:39;;;;;;;6.97;3.73;;;8.00;99.50;;;;;;4962039;28;20038;-80
2022/11/19 11:36:14;;;;;;;4.97;4.00;;;7.70;99.90;;;;;;4965390;28;20437;-79
2022/11/19 11:38:48;;;;;;;5.33;3.77;;;7.30;99.00;;;;;;4957622;28;20054;-79
2022/11/19 11:41:19;;;;;;;4.80;3.67;;;6.80;99.50;;;;;;4946608;28;20047;-79
2022/11/19 11:44:00;;;;;;;4.93;3.70;;;6.00;99.90;;;;;;4947189;28;20089;-79
2022/11/19 11:47:03;;;;;;;6.32;3.63;;;5.40;99.90;;;;;;4930156;28;20639;-84
2022/11/19 11:49:34;;;;;;;7.53;4.67;;;4.70;99.90;;;;;;4959833;28;20046;-79
2022/11/19 11:52:17;;;;;;;9.77;6.37;;;4.70;99.90;;;;;;4960182;28;20077;-80
2022/11/19 11:54:56;;;;;;;13.30;7.80;;;4.80;99.90;;;;;;4958385;28;20089;-80
2022/11/19 11:57:29;;;;;;;14.23;8.63;;;5.10;99.90;;;;;;4944808;28;20105;-79
2022/11/19 11:59:55;;;;;;;18.80;10.40;;;5.20;99.90;;;;;;4957585;28;20054;-80
2022/11/19 12:02:25;;;;;;;14.47;8.97;;;5.00;99.90;;;;;;4943961;28;20153;-79
2022/11/19 12:04:53;;;;;;;8.47;5.50;;;4.70;99.90;;;;;;4955556;28;20390;-79
2022/11/19 12:08:00;;;;;;;5.73;4.40;;;4.40;99.90;;;;;;4930913;28;20432;-79
2022/11/19 12:10:43;;;;;;;6.50;4.30;;;4.10;99.90;;;;;;4956114;28;20043;-79
2022/11/19 12:13:50;;;;;;;6.53;4.37;;;4.00;99.90;;;;;;4962328;28;20047;-79
2022/11/19 12:16:48;;;;;;;6.17;4.47;;;3.90;99.90;;;;;;4954168;28;20133;-84
2022/11/19 12:19:17;;;;;;;13.37;6.57;;;3.70;99.90;;;;;;4942253;28;20197;-78
2022/11/19 12:22:10;;;;;;;8.13;5.57;;;3.80;99.90;;;;;;4962491;28;20054;-78
2022/11/19 12:24:46;;;;;;;7.87;4.80;;;3.70;99.90;;;;;;4961184;28;20404;-79
2022/11/19 12:27:39;;;;;;;5.60;4.40;;;3.80;99.90;;;;;;4947669;28;20390;-78
2022/11/19 12:30:14;;;;;;;6.03;4.60;;;4.50;99.90;;;;;;4958585;28;20121;-79
2022/11/19 12:32:57;;;;;;;6.83;4.97;;;5.30;99.90;;;;;;4962488;28;20046;-79
2022/11/19 12:35:32;;;;;;;6.07;4.30;;;5.70;99.90;;;;;;4961392;28;20054;-79
2022/11/19 12:38:24;;;;;;;6.90;4.33;;;6.10;99.90;;;;;;4946835;28;20075;-79
2022/11/19 12:41:12;;;;;;;4.60;4.00;;;6.00;99.90;;;;;;4961379;28;20468;-79
2022/11/19 12:44:00;;;;;;;5.30;4.23;;;5.60;99.90;;;;;;4964552;28;20047;-81
2022/11/19 12:46:54;;;;;;;5.40;4.10;;;5.60;99.90;;;;;;4947185;28;20503;-79
2022/11/19 12:49:25;;;;;;;5.70;4.37;;;5.10;99.90;;;;;;4962524;28;20045;-79
2022/11/19 12:51:53;;;;;;;6.20;4.20;;;5.00;99.90;;;;;;4958184;28;20356;-79
2022/11/19 12:54:31;;;;;;;6.30;4.50;;;4.80;99.90;;;;;;4961066;28;20054;-80
2022/11/19 12:57:35;;;;;;;5.40;4.27;;;4.60;99.90;;;;;;4943881;28;20061;-79
2022/11/19 13:00:01;;;;;;;6.73;4.50;;;4.50;99.90;;;;;;4906968;29;20110;-79
2022/11/19 13:02:33;;;;;;;6.03;4.13;;;4.40;99.90;;;;;;4909182;29;20047;-78
2022/11/19 13:05:21;;;;;;;7.10;4.30;;;4.40;99.90;;;;;;4923648;28;20071;-79
2022/11/19 13:08:15;;;;;;;5.83;4.10;;;4.40;99.90;;;;;;4951010;28;20047;-79
2022/11/19 13:11:07;;;;;;;5.30;4.40;;;4.20;99.90;;;;;;4959509;28;20493;-79
2022/11/19 13:13:37;;;;;;;6.57;4.03;;;3.90;99.90;;;;;;4963466;28;20050;-79
2022/11/19 13:16:09;;;;;;;1999.90;999.90;;;3.60;99.90;;;;;;4968396;28;20055;-78
2022/11/19 13:18:38;;;;;;;1999.90;999.90;;;3.60;99.90;;;;;;4959322;28;20078;-79
2022/11/19 13:21:34;;;;;;;51.27;48.27;;;3.60;99.90;;;;;;4970485;28;20090;-79